createdAt,value
2022-11-27T00:01:37.618Z,101076.09
2022-11-27T00:04:06.719Z,101079.56
2022-11-27T00:06:37.240Z,101079.38
2022-11-27T00:09:09.872Z,101077.44
2022-11-27T00:11:40.021Z,101072.09
2022-11-27T00:14:09.243Z,101081.38
2022-11-27T00:16:37.673Z,101065.72
2022-11-27T00:19:06.668Z,101062.13
2022-11-27T00:21:36.845Z,101050.78
2022-11-27T00:24:09.794Z,101052.38
2022-11-27T00:26:38.597Z,101044.41
2022-11-27T00:29:08.192Z,101046.00
2022-11-27T00:31:38.328Z,101041.63
2022-11-27T00:34:09.571Z,101043.31
2022-11-27T00:36:39.250Z,101033.88
2022-11-27T00:39:11.149Z,101033.09
2022-11-27T00:41:39.547Z,101033.66
2022-11-27T00:44:08.239Z,101022.34
2022-11-27T00:46:37.867Z,101021.44
2022-11-27T00:49:07.533Z,101019.66
2022-11-27T00:51:36.666Z,101020.56
2022-11-27T00:54:05.611Z,101015.16
2022-11-27T00:56:38.474Z,101014.38
2022-11-27T00:59:08.516Z,101008.22
2022-11-27T01:01:39.563Z,101002.06
2022-11-27T01:04:12.441Z,101017.66
2022-11-27T01:06:41.251Z,101013.16
2022-11-27T01:09:12.027Z,101013.16
2022-11-27T01:11:43.079Z,101011.34
2022-11-27T01:14:16.572Z,101012.94
2022-11-27T01:16:44.921Z,101025.84
2022-11-27T01:19:15.317Z,101021.22
2022-11-27T01:21:43.796Z,101012.63
2022-11-27T01:24:15.341Z,101013.50
2022-11-27T01:26:46.262Z,101018.66
2022-11-27T01:29:14.707Z,101012.50
2022-11-27T01:31:43.269Z,101013.28
2022-11-27T01:34:17.577Z,101011.50
2022-11-27T01:36:46.233Z,101004.44
2022-11-27T01:39:17.877Z,100997.63
2022-11-27T01:41:49.282Z,101003.56
2022-11-27T01:44:51.278Z,101001.75
2022-11-27T01:47:45.339Z,101003.31
2022-11-27T01:50:21.030Z,100999.97
2022-11-27T01:52:57.150Z,100994.03
2022-11-27T01:55:34.020Z,100999.06
2022-11-27T01:58:09.456Z,100998.16
2022-11-27T02:00:39.517Z,101008.47
2022-11-27T02:03:08.017Z,100998.16
2022-11-27T02:05:36.640Z,100996.34
2022-11-27T02:08:10.455Z,100990.44
2022-11-27T02:10:49.515Z,100993.00
2022-11-27T02:13:28.583Z,100984.50
2022-11-27T02:16:11.771Z,100973.97
2022-11-27T02:18:51.803Z,100967.03
2022-11-27T02:21:29.120Z,100958.28
2022-11-27T02:24:33.324Z,100954.69
2022-11-27T02:27:29.795Z,100952.03
2022-11-27T02:30:02.458Z,100952.91
2022-11-27T02:32:37.288Z,100947.84
2022-11-27T02:35:14.129Z,100952.22
2022-11-27T02:37:48.441Z,100945.28
2022-11-27T02:40:24.427Z,100936.66
2022-11-27T02:42:58.748Z,100937.47
2022-11-27T02:45:33.039Z,100933.09
2022-11-27T02:48:01.512Z,100942.38
2022-11-27T02:50:33.325Z,100937.34
2022-11-27T02:53:07.260Z,100940.81
2022-11-27T02:55:37.671Z,100927.03
2022-11-27T02:58:12.444Z,100915.63
2022-11-27T03:00:43.567Z,100914.81
2022-11-27T03:03:16.297Z,100916.41
2022-11-27T03:05:47.300Z,100914.59
2022-11-27T03:08:23.503Z,100909.47
2022-11-27T03:10:56.348Z,100914.59
2022-11-27T03:13:25.106Z,100906.75
2022-11-27T03:16:08.238Z,100909.47
2022-11-27T03:18:42.406Z,100899.16
2022-11-27T03:21:23.321Z,100899.03
2022-11-27T03:23:51.752Z,100898.91
2022-11-27T03:26:20.521Z,100898.03
2022-11-27T03:28:51.649Z,100883.25
2022-11-27T03:31:23.763Z,100889.31
2022-11-27T03:33:52.756Z,100889.31
2022-11-27T03:36:23.144Z,100884.16
2022-11-27T03:38:55.311Z,100886.72
2022-11-27T03:41:38.685Z,100879.78
2022-11-27T03:44:16.685Z,100891.63
2022-11-27T03:47:01.955Z,100883.13
2022-11-27T03:49:40.361Z,100889.97
2022-11-27T03:52:17.371Z,100892.53
2022-11-27T03:54:57.612Z,100888.16
2022-11-27T03:57:33.319Z,100894.91
2022-11-27T04:00:05.698Z,100894.91
2022-11-27T04:02:44.189Z,100888.09
2022-11-27T04:05:14.371Z,100889.75
2022-11-27T04:07:42.972Z,100901.03
2022-11-27T04:10:13.208Z,100887.97
2022-11-27T04:12:43.179Z,100894.22
2022-11-27T04:15:13.139Z,100885.59
2022-11-27T04:17:43.239Z,100882.94
2022-11-27T04:20:14.381Z,100871.16
2022-11-27T04:22:43.150Z,100869.34
2022-11-27T04:25:11.715Z,100859.94
2022-11-27T04:27:40.105Z,100860.97
2022-11-27T04:30:10.290Z,100860.19
2022-11-27T04:32:38.658Z,100850.78
2022-11-27T04:35:11.011Z,100845.63
2022-11-27T04:37:39.416Z,100845.50
2022-11-27T04:40:09.863Z,100848.19
2022-11-27T04:42:38.209Z,100836.22
2022-11-27T04:45:08.654Z,100831.94
2022-11-27T04:47:37.074Z,100835.53
2022-11-27T04:50:08.834Z,100832.03
2022-11-27T04:52:37.368Z,100831.16
2022-11-27T04:55:06.587Z,100839.78
2022-11-27T04:57:35.260Z,100814.91
2022-11-27T05:00:04.581Z,100816.69
2022-11-27T05:02:33.487Z,100813.22
2022-11-27T05:05:02.298Z,100797.66
2022-11-27T05:07:32.404Z,100797.66
2022-11-27T05:10:01.073Z,100790.72
2022-11-27T05:12:30.022Z,100794.09
2022-11-27T05:15:03.015Z,100788.94
2022-11-27T05:17:32.673Z,100784.56
2022-11-27T05:20:01.065Z,100793.28
2022-11-27T05:22:30.898Z,100773.50
2022-11-27T05:24:59.499Z,100775.25
2022-11-27T05:27:27.944Z,100780.41
2022-11-27T05:29:56.386Z,100788.94
2022-11-27T05:32:25.033Z,100780.41
2022-11-27T05:34:53.511Z,100777.94
2022-11-27T05:37:21.974Z,100774.47
2022-11-27T05:39:51.770Z,100766.75
2022-11-27T05:42:20.160Z,100770.22
2022-11-27T05:44:48.523Z,100760.81
2022-11-27T05:47:16.989Z,100754.75
2022-11-27T05:49:45.397Z,100755.66
2022-11-27T05:52:13.819Z,100753.97
2022-11-27T05:54:42.752Z,100753.19
2022-11-27T05:57:12.616Z,100751.50
2022-11-27T05:59:40.944Z,100752.50
2022-11-27T06:02:09.587Z,100750.16
2022-11-27T06:04:38.292Z,100750.16
2022-11-27T06:07:06.828Z,100750.16
2022-11-27T06:09:35.440Z,100747.69
2022-11-27T06:12:03.978Z,100735.59
2022-11-27T06:14:35.079Z,100735.66
2022-11-27T06:17:04.575Z,100736.47
2022-11-27T06:19:33.353Z,100751.03
2022-11-27T06:22:01.929Z,100739.84
2022-11-27T06:24:30.304Z,100739.06
2022-11-27T06:26:58.756Z,100733.09
2022-11-27T06:29:27.229Z,100732.41
2022-11-27T06:31:57.416Z,100734.09
2022-11-27T06:34:26.017Z,100728.94
2022-11-27T06:36:54.446Z,100727.94
2022-11-27T06:39:22.895Z,100727.16
2022-11-27T06:41:51.281Z,100725.47
2022-11-27T06:44:19.780Z,100720.31
2022-11-27T06:46:48.139Z,100726.38
2022-11-27T06:49:20.632Z,100713.59
2022-11-27T06:51:50.852Z,100705.97
2022-11-27T06:54:19.240Z,100705.09
2022-11-27T06:56:50.700Z,100702.59
2022-11-27T06:59:19.482Z,100711.31
2022-11-27T07:01:48.554Z,100700.91
2022-11-27T07:04:18.625Z,100708.75
2022-11-27T07:06:47.424Z,100688.91
2022-11-27T07:09:16.544Z,100696.66
2022-11-27T07:11:44.887Z,100677.72
2022-11-27T07:14:13.275Z,100681.97
2022-11-27T07:16:41.715Z,100678.59
2022-11-27T07:19:11.192Z,100674.25
2022-11-27T07:21:41.596Z,100672.56
2022-11-27T07:24:10.124Z,100681.97
2022-11-27T07:26:38.585Z,100665.72
2022-11-27T07:29:07.001Z,100670.09
2022-11-27T07:31:35.398Z,100673.47
2022-11-27T07:34:07.220Z,100684.66
2022-11-27T07:36:41.895Z,100682.19
2022-11-27T07:39:10.268Z,100687.34
2022-11-27T07:41:38.743Z,100690.81
2022-11-27T07:44:07.040Z,100680.63
2022-11-27T07:46:35.674Z,100676.44
2022-11-27T07:49:04.151Z,100673.97
2022-11-27T07:51:32.575Z,100669.59
2022-11-27T07:54:02.544Z,100674.09
2022-11-27T07:56:31.860Z,100670.69
2022-11-27T07:59:00.241Z,100660.50
2022-11-27T08:01:28.682Z,100651.88
2022-11-27T08:03:57.582Z,100646.81
2022-11-27T08:06:28.139Z,100641.78
2022-11-27T08:08:57.256Z,100633.28
2022-11-27T08:11:29.710Z,100636.81
2022-11-27T08:14:00.645Z,100635.13
2022-11-27T08:16:29.781Z,100628.28
2022-11-27T08:18:58.425Z,100637.81
2022-11-27T08:21:28.577Z,100637.03
2022-11-27T08:24:00.536Z,100629.50
2022-11-27T08:26:30.977Z,100629.59
2022-11-27T08:28:59.440Z,100630.59
2022-11-27T08:31:28.034Z,100611.66
2022-11-27T08:33:56.508Z,100616.00
2022-11-27T08:36:26.944Z,100606.69
2022-11-27T08:38:56.592Z,100605.13
2022-11-27T08:41:25.081Z,100601.75
2022-11-27T08:43:54.789Z,100608.88
2022-11-27T08:46:23.266Z,100603.72
2022-11-27T08:48:52.146Z,100599.53
2022-11-27T08:51:20.538Z,100599.75
2022-11-27T08:53:49.031Z,100600.75
2022-11-27T08:56:20.167Z,100595.78
2022-11-27T08:58:49.088Z,100594.09
2022-11-27T09:01:22.105Z,100593.41
2022-11-27T09:03:51.153Z,100577.13
2022-11-27T09:06:23.665Z,100563.56
2022-11-27T09:08:52.861Z,100575.72
2022-11-27T09:11:21.941Z,100579.31
2022-11-27T09:13:51.098Z,100566.41
2022-11-27T09:16:23.588Z,100577.94
2022-11-27T09:18:54.167Z,100573.69
2022-11-27T09:21:27.110Z,100573.78
2022-11-27T09:23:56.580Z,100579.91
2022-11-27T09:26:26.223Z,100596.41
2022-11-27T09:28:55.671Z,100588.88
2022-11-27T09:31:25.921Z,100590.63
2022-11-27T09:33:54.558Z,100589.94
2022-11-27T09:36:26.421Z,100591.00
2022-11-27T09:38:55.328Z,100585.06
2022-11-27T09:41:45.871Z,100570.59
2022-11-27T09:44:35.821Z,100575.75
2022-11-27T09:47:16.921Z,100577.53
2022-11-27T09:49:50.663Z,100575.84
2022-11-27T09:52:25.680Z,100570.75
2022-11-27T09:55:01.898Z,100572.56
2022-11-27T09:57:34.531Z,100571.75
2022-11-27T10:00:07.306Z,100576.13
2022-11-27T10:02:37.433Z,100572.75
2022-11-27T10:05:15.483Z,100560.72
2022-11-27T10:08:16.034Z,100562.44
2022-11-27T10:11:00.239Z,100571.03
2022-11-27T10:13:48.903Z,100563.41
2022-11-27T10:16:26.604Z,100559.25
2022-11-27T10:19:00.683Z,100562.00
2022-11-27T10:21:40.845Z,100554.47
2022-11-27T10:24:20.877Z,100558.00
2022-11-27T10:26:51.409Z,100549.59
2022-11-27T10:29:36.933Z,100552.44
2022-11-27T10:32:32.852Z,100540.53
2022-11-27T10:35:08.388Z,100534.56
2022-11-27T10:37:41.625Z,100539.00
2022-11-27T10:40:22.198Z,100534.06
2022-11-27T10:43:00.456Z,100529.97
2022-11-27T10:45:39.654Z,100540.50
2022-11-27T10:48:08.934Z,100544.94
2022-11-27T10:50:39.283Z,100533.91
2022-11-27T10:53:10.840Z,100520.38
2022-11-27T10:55:58.243Z,100517.97
2022-11-27T10:58:34.282Z,100516.38
2022-11-27T11:01:05.520Z,100511.31
2022-11-27T11:03:35.044Z,100509.78
2022-11-27T11:06:24.572Z,100504.72
2022-11-27T11:09:05.297Z,100505.63
2022-11-27T11:11:34.037Z,100501.41
2022-11-27T11:14:02.678Z,100492.06
2022-11-27T11:16:35.193Z,100489.69
2022-11-27T11:19:06.174Z,100493.22
2022-11-27T11:21:40.538Z,100489.06
2022-11-27T11:24:17.119Z,100489.16
2022-11-27T11:26:49.476Z,100476.31
2022-11-27T11:29:31.290Z,100475.53
2022-11-27T11:32:09.139Z,100472.13
2022-11-27T11:34:43.391Z,100461.81
2022-11-27T11:37:25.239Z,100445.59
2022-11-27T11:40:00.292Z,100445.59
2022-11-27T11:42:31.670Z,100449.16
2022-11-27T11:45:06.789Z,100448.44
2022-11-27T11:47:36.850Z,100439.81
2022-11-27T11:50:06.954Z,100434.75
2022-11-27T11:52:51.939Z,100424.47
2022-11-27T11:55:27.203Z,100425.34
2022-11-27T11:58:27.061Z,100429.72
2022-11-27T12:01:25.896Z,100423.78
2022-11-27T12:04:15.956Z,100414.38
2022-11-27T12:06:56.716Z,100400.66
2022-11-27T12:09:46.331Z,100401.69
2022-11-27T12:12:29.405Z,100395.72
2022-11-27T12:15:04.984Z,100389.81
2022-11-27T12:17:49.763Z,100373.53
2022-11-27T12:20:21.881Z,100372.72
2022-11-27T12:23:17.633Z,100364.09
2022-11-27T12:25:58.949Z,100366.88
2022-11-27T12:29:01.332Z,100358.28
2022-11-27T12:31:52.244Z,100346.34
2022-11-27T12:34:34.545Z,100336.91
2022-11-27T12:37:24.881Z,100333.50
2022-11-27T12:40:10.799Z,100321.47
2022-11-27T12:42:51.875Z,100319.78
2022-11-27T12:45:24.125Z,100319.84
2022-11-27T12:47:59.455Z,100313.00
2022-11-27T12:50:41.463Z,100292.41
2022-11-27T12:53:23.145Z,100277.72
2022-11-27T12:56:02.776Z,100255.34
2022-11-27T12:58:36.786Z,100239.75
2022-11-27T13:01:11.572Z,100236.34
2022-11-27T13:03:50.044Z,100250.06
2022-11-27T13:06:21.306Z,100261.22
2022-11-27T13:08:57.677Z,100262.94
2022-11-27T13:11:32.911Z,100248.28
2022-11-27T13:14:08.530Z,100243.97
2022-11-27T13:16:41.174Z,100237.09
2022-11-27T13:19:18.173Z,100228.47
2022-11-27T13:21:47.611Z,100226.66
2022-11-27T13:24:16.978Z,100227.63
2022-11-27T13:26:55.981Z,100224.25
2022-11-27T13:29:32.172Z,100227.63
2022-11-27T13:32:04.638Z,100227.63
2022-11-27T13:34:35.789Z,100232.78
2022-11-27T13:37:07.343Z,100230.19
2022-11-27T13:39:39.251Z,100229.41
2022-11-27T13:42:19.604Z,100220.84
2022-11-27T13:44:56.798Z,100216.66
2022-11-27T13:47:28.287Z,100208.03
2022-11-27T13:50:02.830Z,100218.34
2022-11-27T13:52:31.394Z,100210.50
2022-11-27T13:55:02.837Z,100212.31
2022-11-27T13:57:34.241Z,100206.25
2022-11-27T14:00:09.242Z,100199.38
2022-11-27T14:02:47.075Z,100207.13
2022-11-27T14:05:18.344Z,100195.00
2022-11-27T14:07:49.902Z,100201.97
2022-11-27T14:10:22.503Z,100192.50
2022-11-27T14:12:56.666Z,100190.81
2022-11-27T14:15:29.526Z,100189.84
2022-11-27T14:18:09.566Z,100182.97
2022-11-27T14:20:47.832Z,100188.25
2022-11-27T14:23:29.324Z,100185.72
2022-11-27T14:26:13.390Z,100194.34
2022-11-27T14:28:46.441Z,100190.88
2022-11-27T14:31:27.840Z,100204.78
2022-11-27T14:36:44.832Z,100202.09
2022-11-27T14:39:24.048Z,100208.34
2022-11-27T14:42:03.773Z,100210.03
2022-11-27T14:44:32.584Z,100212.63
2022-11-27T14:47:05.215Z,100211.72
2022-11-27T14:49:35.201Z,100217.78
2022-11-27T14:52:07.232Z,100208.44
2022-11-27T14:54:38.992Z,100203.28
2022-11-27T14:57:08.551Z,100193.72
2022-11-27T14:59:37.041Z,100195.50
2022-11-27T15:02:23.331Z,100180.88
2022-11-27T15:05:06.037Z,100167.09
2022-11-27T15:07:45.221Z,100172.25
2022-11-27T15:10:36.375Z,100173.06
2022-11-27T15:13:07.971Z,100175.63
2022-11-27T15:15:41.071Z,100184.34
2022-11-27T15:18:22.336Z,100188.63
2022-11-27T15:20:52.373Z,100188.56
2022-11-27T15:23:25.313Z,100190.34
2022-11-27T15:26:14.382Z,100180.00
2022-11-27T15:28:51.944Z,100180.72
2022-11-27T15:31:27.922Z,100170.38
2022-11-27T15:34:04.454Z,100173.78
2022-11-27T15:36:40.696Z,100178.78
2022-11-27T15:39:23.255Z,100177.91
2022-11-27T15:41:55.583Z,100174.34
2022-11-27T15:44:25.233Z,100160.44
2022-11-27T15:46:54.401Z,100152.69
2022-11-27T15:49:24.312Z,100146.72
2022-11-27T15:51:53.162Z,100144.13
2022-11-27T15:54:21.660Z,100145.78
2022-11-27T15:56:50.200Z,100135.34
2022-11-27T15:59:20.965Z,100141.31
2022-11-27T16:01:50.367Z,100133.47
2022-11-27T16:04:19.099Z,100133.41
2022-11-27T16:06:49.117Z,100125.47
2022-11-27T16:09:17.675Z,100119.44
2022-11-27T16:11:46.592Z,100138.31
2022-11-27T16:14:15.189Z,100133.09
2022-11-27T16:16:43.695Z,100135.69
2022-11-27T16:19:12.445Z,100120.84
2022-11-27T16:21:40.977Z,100113.09
2022-11-27T16:24:15.021Z,100102.78
2022-11-27T16:26:43.664Z,100100.09
2022-11-27T16:29:12.417Z,100097.47
2022-11-27T16:31:41.672Z,100093.19
2022-11-27T16:34:10.358Z,100094.78
2022-11-27T16:36:43.722Z,100093.91
2022-11-27T16:39:14.273Z,100078.41
2022-11-27T16:41:42.605Z,100067.97
2022-11-27T16:44:14.221Z,100065.38
2022-11-27T16:46:44.451Z,100066.13
2022-11-27T16:49:14.232Z,100066.13
2022-11-27T16:51:43.827Z,100058.41
2022-11-27T16:54:15.488Z,100058.41
2022-11-27T16:56:44.709Z,100064.34
2022-11-27T16:59:17.421Z,100052.34
2022-11-27T17:01:46.247Z,100048.88
2022-11-27T17:04:19.147Z,100050.66
2022-11-27T17:06:49.041Z,100047.97
2022-11-27T17:09:19.076Z,100048.78
2022-11-27T17:11:49.452Z,100049.66
2022-11-27T17:14:20.678Z,100041.03
2022-11-27T17:16:50.756Z,100042.81
2022-11-27T17:19:19.831Z,100041.03
2022-11-27T17:21:48.285Z,100030.78
2022-11-27T17:24:19.198Z,100018.66
2022-11-27T17:26:49.334Z,100005.75
2022-11-27T17:29:20.861Z,100000.59
2022-11-27T17:31:51.801Z,99991.16
2022-11-27T17:34:20.942Z,99985.00
2022-11-27T17:36:53.661Z,99983.31
2022-11-27T17:39:24.270Z,99984.19
2022-11-27T17:41:52.612Z,99982.41
2022-11-27T17:44:20.925Z,99978.16
2022-11-27T17:46:50.585Z,99966.13
2022-11-27T17:49:21.960Z,99962.66
2022-11-27T17:51:51.740Z,99953.22
2022-11-27T17:54:21.338Z,99949.72
2022-11-27T17:56:52.849Z,99944.56
2022-11-27T17:59:22.556Z,99934.25
2022-11-27T18:01:53.179Z,99929.03
2022-11-27T18:04:23.068Z,99926.50
2022-11-27T18:06:51.842Z,99929.88
2022-11-27T18:09:22.270Z,99921.31
2022-11-27T18:11:52.246Z,99910.19
2022-11-27T18:14:20.831Z,99912.78
2022-11-27T18:16:49.382Z,99906.72
2022-11-27T18:19:17.904Z,99895.50
2022-11-27T18:21:46.337Z,99889.44
2022-11-27T18:24:23.390Z,99886.06
2022-11-27T18:27:09.914Z,99894.59
2022-11-27T18:29:40.413Z,99878.22
2022-11-27T18:32:09.920Z,99885.97
2022-11-27T18:34:38.605Z,99882.59
2022-11-27T18:37:08.203Z,99885.25
2022-11-27T18:39:37.793Z,99891.22
2022-11-27T18:42:08.458Z,99897.28
2022-11-27T18:44:44.264Z,99899.06
2022-11-27T18:47:13.809Z,99892.19
2022-11-27T18:49:43.825Z,99895.81
2022-11-27T18:52:12.794Z,99891.53
2022-11-27T18:54:41.543Z,99883.84
2022-11-27T18:57:11.771Z,99878.69
2022-11-27T18:59:40.918Z,99875.31
2022-11-27T19:02:11.229Z,99863.31
2022-11-27T19:04:40.280Z,99853.00
2022-11-27T19:07:08.810Z,99849.59
2022-11-27T19:09:37.637Z,99848.72
2022-11-27T19:12:06.786Z,99847.13
2022-11-27T19:14:36.930Z,99848.91
2022-11-27T19:17:06.190Z,99844.56
2022-11-27T19:22:24.858Z,99820.41
2022-11-27T19:24:54.812Z,99820.41
2022-11-27T19:27:23.261Z,99822.19
2022-11-27T19:29:53.150Z,99820.56
2022-11-27T19:32:21.905Z,99817.13
2022-11-27T19:34:51.515Z,99826.56
2022-11-27T19:37:33.390Z,99836.06
2022-11-27T19:40:04.005Z,99839.47
2022-11-27T19:42:33.257Z,99848.97
2022-11-27T19:45:03.434Z,99855.03
2022-11-27T19:47:32.238Z,99852.44
2022-11-27T19:50:00.886Z,99845.56
2022-11-27T19:52:29.513Z,99835.25
2022-11-27T19:54:57.924Z,99839.59
2022-11-27T19:57:26.442Z,99822.31
2022-11-27T19:59:55.092Z,99817.25
2022-11-27T20:02:26.255Z,99807.72
2022-11-27T20:04:55.489Z,99824.09
2022-11-27T20:07:24.184Z,99820.63
2022-11-27T20:09:53.288Z,99824.91
2022-11-27T20:12:21.891Z,99821.44
2022-11-27T20:14:50.255Z,99818.13
2022-11-27T20:17:20.096Z,99821.59
2022-11-27T20:19:50.018Z,99813.78
2022-11-27T20:22:19.710Z,99819.91
2022-11-27T20:25:17.188Z,99819.81
2022-11-27T20:27:38.120Z,99810.31
2022-11-27T20:30:08.773Z,99811.09
2022-11-27T20:32:37.535Z,99815.34
2022-11-27T20:35:07.939Z,99810.22
2022-11-27T20:37:37.909Z,99804.91
2022-11-27T20:40:08.375Z,99799.75
2022-11-27T20:42:37.052Z,99793.59
2022-11-27T20:45:06.397Z,99801.34
2022-11-27T20:47:36.752Z,99804.72
2022-11-27T20:50:09.177Z,99794.38
2022-11-27T20:52:37.628Z,99794.38
2022-11-27T20:55:07.819Z,99784.94
2022-11-27T20:57:36.410Z,99774.56
2022-11-27T21:00:06.864Z,99771.97
2022-11-27T21:02:36.683Z,99765.03
2022-11-27T21:05:08.428Z,99756.47
2022-11-27T21:07:38.762Z,99765.97
2022-11-27T21:10:10.601Z,99764.22
2022-11-27T21:12:39.878Z,99752.13
2022-11-27T21:15:10.772Z,99746.97
2022-11-27T21:17:39.133Z,99760.69
2022-11-27T21:20:11.436Z,99754.72
2022-11-27T21:22:42.521Z,99749.47
2022-11-27T21:25:11.545Z,99746.00
2022-11-27T21:27:40.583Z,99738.25
2022-11-27T21:30:10.056Z,99733.88
2022-11-27T21:32:38.701Z,99723.50
2022-11-27T21:35:09.240Z,99726.13
2022-11-27T21:37:37.846Z,99729.59
2022-11-27T21:40:09.275Z,99733.88
2022-11-27T21:42:42.994Z,99722.53
2022-11-27T21:45:13.000Z,99734.56
2022-11-27T21:47:42.100Z,99719.88
2022-11-27T21:50:13.887Z,99726.81
2022-11-27T21:52:42.300Z,99725.03
2022-11-27T21:55:12.294Z,99710.44
2022-11-27T21:57:41.237Z,99706.06
2022-11-27T22:00:10.867Z,99699.16
2022-11-27T22:02:40.611Z,99685.38
2022-11-27T22:05:11.189Z,99673.34
2022-11-27T22:07:39.742Z,99663.03
2022-11-27T22:10:10.532Z,99667.28
2022-11-27T22:12:39.409Z,99661.28
2022-11-27T22:15:09.590Z,99650.09
2022-11-27T22:17:39.411Z,99659.59
2022-11-27T22:20:09.459Z,99660.47
2022-11-27T22:22:40.588Z,99657.91
2022-11-27T22:25:10.425Z,99657.91
2022-11-27T22:27:38.753Z,99651.84
2022-11-27T22:30:09.638Z,99645.88
2022-11-27T22:32:38.581Z,99633.84
2022-11-27T22:35:08.386Z,99630.44
2022-11-27T22:37:36.884Z,99626.03
2022-11-27T22:40:09.061Z,99626.09
2022-11-27T22:42:37.458Z,99632.88
2022-11-27T22:45:07.691Z,99631.19
2022-11-27T22:47:36.118Z,99636.31
2022-11-27T22:50:05.584Z,99638.88
2022-11-27T22:52:34.476Z,99656.13
2022-11-27T22:55:03.769Z,99668.22
2022-11-27T22:57:34.958Z,99652.72
2022-11-27T23:00:05.583Z,99665.66
2022-11-27T23:02:34.804Z,99667.41
2022-11-27T23:05:03.720Z,99670.00
2022-11-27T23:07:32.773Z,99664.84
2022-11-27T23:10:01.664Z,99659.66
2022-11-27T23:12:30.120Z,99664.84
2022-11-27T23:14:59.998Z,99662.34
2022-11-27T23:17:28.959Z,99651.13
2022-11-27T23:19:57.378Z,99651.13
2022-11-27T23:22:25.776Z,99650.31
2022-11-27T23:24:54.963Z,99639.00
2022-11-27T23:27:23.446Z,99626.91
2022-11-27T23:29:52.243Z,99625.97
2022-11-27T23:32:22.188Z,99623.41
2022-11-27T23:34:50.997Z,99620.72
2022-11-27T23:37:19.453Z,99625.91
2022-11-27T23:39:47.858Z,99628.47
2022-11-27T23:42:16.258Z,99616.44
2022-11-27T23:44:44.631Z,99611.28
2022-11-27T23:47:13.351Z,99606.03
2022-11-27T23:49:43.714Z,99605.25
2022-11-27T23:52:16.973Z,99610.41
2022-11-27T23:54:45.703Z,99607.00
2022-11-27T23:57:14.076Z,99601.84
2022-11-27T23:59:42.574Z,99596.59
